createdAt,value
2022-10-28T00:02:44.322Z,16.55
2022-10-28T00:05:11.587Z,16.15
2022-10-28T00:07:41.229Z,16.10
2022-10-28T00:10:09.537Z,16.30
2022-10-28T00:12:37.800Z,16.30
2022-10-28T00:17:56.612Z,15.48
2022-10-28T00:23:22.908Z,16.02
2022-10-28T00:25:57.818Z,14.90
2022-10-28T00:28:37.534Z,15.55
2022-10-28T00:31:30.353Z,15.52
2022-10-28T00:34:10.666Z,15.27
2022-10-28T00:36:51.578Z,14.65
2022-10-28T00:39:41.246Z,15.23
2022-10-28T00:42:18.110Z,13.90
2022-10-28T00:45:19.683Z,14.57
2022-10-28T00:48:07.519Z,14.90
2022-10-28T00:51:04.636Z,13.85
2022-10-28T00:53:53.599Z,12.85
2022-10-28T00:59:48.302Z,13.02
2022-10-28T01:04:18.963Z,13.35
2022-10-28T01:06:03.702Z,12.85
2022-10-28T01:09:00.481Z,12.32
2022-10-28T01:12:32.512Z,12.38
2022-10-28T01:19:47.509Z,12.20
2022-10-28T01:23:07.527Z,11.80
2022-10-28T01:26:06.297Z,12.32
2022-10-28T01:29:09.880Z,11.73
2022-10-28T01:32:05.987Z,11.52
2022-10-28T01:35:22.311Z,12.20
2022-10-28T01:38:24.737Z,11.25
2022-10-28T01:41:04.121Z,11.60
2022-10-28T01:43:37.889Z,10.75
2022-10-28T01:46:14.234Z,10.75
2022-10-28T01:49:00.589Z,10.50
2022-10-28T01:51:48.937Z,10.27
2022-10-28T01:54:24.808Z,10.80
2022-10-28T01:56:58.996Z,10.60
2022-10-28T01:59:28.779Z,10.65
2022-10-28T02:04:29.868Z,10.13
2022-10-28T02:07:00.345Z,10.38
2022-10-28T02:09:41.896Z,9.48
2022-10-28T02:12:34.036Z,10.07
2022-10-28T02:15:21.049Z,9.88
2022-10-28T02:18:15.951Z,10.20
2022-10-28T02:21:12.299Z,9.48
2022-10-28T02:24:18.019Z,9.80
2022-10-28T02:26:57.691Z,9.18
2022-10-28T02:30:00.198Z,9.45
2022-10-28T02:32:40.321Z,9.05
2022-10-28T02:38:48.637Z,9.23
2022-10-28T02:41:49.741Z,8.38
2022-10-28T02:45:06.528Z,8.77
2022-10-28T02:47:52.713Z,9.25
2022-10-28T02:50:46.206Z,8.77
2022-10-28T02:53:37.107Z,8.52
2022-10-28T02:56:20.970Z,8.40
2022-10-28T02:58:55.565Z,8.18
2022-10-28T03:04:25.622Z,7.70
2022-10-28T03:06:57.893Z,8.10
2022-10-28T03:09:34.667Z,8.10
2022-10-28T03:12:09.355Z,7.20
2022-10-28T03:14:44.630Z,7.43
2022-10-28T03:17:18.129Z,8.20
2022-10-28T03:19:50.727Z,7.90
2022-10-28T03:22:23.272Z,7.03
2022-10-28T03:24:56.065Z,7.57
2022-10-28T03:27:23.557Z,7.68
2022-10-28T03:29:53.851Z,7.18
2022-10-28T03:34:50.526Z,7.20
2022-10-28T03:37:21.035Z,7.15
2022-10-28T03:39:51.236Z,7.05
2022-10-28T03:42:21.252Z,6.85
2022-10-28T03:44:53.999Z,7.53
2022-10-28T03:47:21.134Z,7.15
2022-10-28T03:49:50.110Z,7.32
2022-10-28T03:52:22.301Z,6.75
2022-10-28T03:54:59.829Z,6.90
2022-10-28T03:57:36.301Z,7.18
2022-10-28T04:00:08.513Z,6.80
2022-10-28T04:02:39.049Z,6.68
2022-10-28T04:05:08.698Z,6.57
2022-10-28T04:07:59.133Z,7.00
2022-10-28T04:10:42.613Z,6.30
2022-10-28T04:13:22.925Z,6.50
2022-10-28T04:15:59.825Z,6.95
2022-10-28T04:18:36.139Z,6.15
2022-10-28T04:21:15.238Z,6.25
2022-10-28T04:23:45.711Z,5.93
2022-10-28T04:26:21.752Z,6.90
2022-10-28T04:28:53.075Z,6.10
2022-10-28T04:35:12.877Z,6.07
2022-10-28T04:38:00.437Z,5.35
2022-10-28T04:40:57.759Z,5.75
2022-10-28T04:46:08.886Z,5.72
2022-10-28T04:48:40.066Z,5.55
2022-10-28T04:51:19.587Z,5.97
2022-10-28T04:53:49.246Z,5.78
2022-10-28T04:56:21.905Z,5.68
2022-10-28T04:58:51.734Z,5.00
2022-10-28T05:01:23.836Z,5.55
2022-10-28T05:03:51.034Z,5.22
2022-10-28T05:06:33.461Z,5.85
2022-10-28T05:09:04.039Z,5.28
2022-10-28T05:11:37.070Z,5.43
2022-10-28T05:14:05.064Z,5.28
2022-10-28T05:16:34.891Z,5.32
2022-10-28T05:19:01.961Z,5.60
2022-10-28T05:21:28.981Z,5.00
2022-10-28T05:23:55.881Z,4.57
2022-10-28T05:26:22.743Z,5.05
2022-10-28T05:29:30.865Z,5.25
2022-10-28T05:43:01.127Z,29.90
2022-10-28T05:46:50.996Z,23.85
2022-10-28T05:49:29.919Z,18.77
2022-10-28T05:54:54.975Z,16.45
2022-10-28T05:57:21.898Z,16.88
2022-10-28T05:59:48.785Z,15.93
2022-10-28T06:04:43.062Z,14.25
2022-10-28T06:07:10.145Z,14.20
2022-10-28T06:09:37.063Z,13.10
2022-10-28T06:12:04.241Z,12.65
2022-10-28T06:14:31.169Z,13.30
2022-10-28T06:16:58.020Z,11.65
2022-10-28T06:19:24.984Z,11.82
2022-10-28T06:21:51.851Z,12.13
2022-10-28T06:24:18.752Z,10.85
2022-10-28T06:26:45.700Z,11.35
2022-10-28T06:29:12.684Z,10.07
2022-10-28T06:31:40.468Z,10.20
2022-10-28T06:34:08.541Z,9.82
2022-10-28T06:36:35.592Z,9.80
2022-10-28T06:39:04.107Z,9.98
2022-10-28T06:41:36.371Z,10.13
2022-10-28T06:44:43.350Z,9.35
2022-10-28T06:47:17.299Z,8.98
2022-10-28T06:49:44.448Z,8.95
2022-10-28T06:52:21.324Z,8.48
2022-10-28T06:55:00.981Z,9.07
2022-10-28T06:57:45.369Z,8.60
2022-10-28T07:00:45.135Z,8.52
2022-10-28T07:03:51.875Z,8.73
2022-10-28T07:06:55.774Z,8.07
2022-10-28T07:09:22.861Z,7.90
2022-10-28T07:11:54.884Z,12.65
2022-10-28T07:14:39.587Z,39.55
2022-10-28T07:17:13.576Z,28.25
2022-10-28T07:19:40.536Z,23.45
2022-10-28T07:22:35.903Z,18.85
2022-10-28T07:25:45.166Z,15.90
2022-10-28T07:38:39.511Z,11.75
2022-10-28T07:41:23.755Z,10.93
2022-10-28T07:44:50.704Z,10.35
2022-10-28T07:48:30.448Z,10.90
2022-10-28T07:51:15.011Z,11.15
2022-10-28T07:54:04.519Z,9.50
2022-10-28T07:57:16.715Z,9.70
2022-10-28T08:00:20.832Z,8.90
2022-10-28T08:03:34.580Z,9.00
2022-10-28T08:09:57.295Z,8.23
2022-10-28T08:15:55.605Z,8.55
2022-10-28T08:18:55.787Z,8.40
2022-10-28T08:21:35.150Z,7.93
2022-10-28T08:24:16.894Z,8.07
2022-10-28T08:26:59.524Z,8.32
2022-10-28T08:29:58.901Z,8.07
2022-10-28T08:32:42.891Z,8.02
2022-10-28T08:36:30.711Z,31.35
2022-10-28T08:46:03.294Z,13.23
2022-10-28T08:48:53.366Z,12.85
2022-10-28T08:52:25.441Z,11.82
2022-10-28T08:55:49.649Z,11.40
2022-10-28T08:58:43.187Z,11.02
2022-10-28T09:01:41.461Z,10.57
2022-10-28T09:05:18.212Z,10.35
2022-10-28T09:08:00.215Z,10.57
2022-10-28T09:11:24.711Z,10.60
2022-10-28T09:14:32.265Z,10.27
2022-10-28T09:17:36.190Z,9.15
2022-10-28T09:24:07.289Z,9.65
2022-10-28T09:31:23.865Z,8.93
2022-10-28T09:34:18.386Z,8.35
2022-10-28T09:37:14.051Z,9.13
2022-10-28T09:46:59.155Z,8.20
2022-10-28T09:49:40.907Z,8.10
2022-10-28T09:55:58.976Z,7.65
2022-10-28T09:58:51.335Z,7.68
2022-10-28T10:13:20.242Z,7.82
2022-10-28T10:35:46.009Z,6.60
2022-10-28T10:40:04.805Z,6.85
2022-10-28T10:46:15.396Z,7.22
2022-10-28T10:53:41.946Z,6.68
2022-10-28T11:00:03.447Z,6.35
2022-10-28T11:02:58.819Z,6.20
2022-10-28T11:05:35.911Z,6.20
2022-10-28T11:08:06.740Z,6.28
2022-10-28T11:10:35.340Z,5.85
2022-10-28T11:13:15.694Z,5.87
2022-10-28T11:15:42.593Z,5.28
2022-10-28T11:18:09.467Z,5.40
2022-10-28T11:20:47.048Z,6.20
2022-10-28T11:23:42.485Z,5.40
2022-10-28T11:26:12.218Z,5.57
2022-10-28T11:28:44.584Z,5.93
2022-10-28T11:31:33.307Z,5.88
2022-10-28T11:34:39.748Z,5.88
2022-10-28T11:37:41.938Z,5.85
2022-10-28T11:40:50.870Z,5.25
2022-10-28T11:43:44.970Z,5.45
2022-10-28T11:46:22.187Z,5.93
2022-10-28T11:49:10.112Z,5.47
2022-10-28T11:52:14.441Z,5.47
2022-10-28T11:54:56.420Z,5.13
2022-10-28T11:57:43.574Z,4.80
2022-10-28T12:00:28.500Z,5.43
2022-10-28T12:03:01.958Z,5.00
2022-10-28T12:05:33.478Z,5.38
2022-10-28T12:08:26.067Z,5.57
2022-10-28T12:11:01.747Z,5.00
2022-10-28T12:13:37.744Z,5.03
2022-10-28T12:16:10.366Z,4.80
2022-10-28T12:18:51.505Z,4.85
2022-10-28T12:21:36.874Z,4.95
2022-10-28T12:24:06.921Z,5.35
2022-10-28T12:26:46.982Z,4.90
2022-10-28T12:29:30.131Z,4.82
2022-10-28T12:32:28.797Z,5.22
2022-10-28T12:35:04.782Z,5.10
2022-10-28T12:37:37.329Z,4.90
2022-10-28T12:40:25.993Z,4.63
2022-10-28T12:43:16.838Z,4.73
2022-10-28T12:45:43.959Z,5.03
2022-10-28T12:48:22.654Z,4.97
2022-10-28T12:51:10.333Z,4.65
2022-10-28T12:53:41.762Z,5.00
2022-10-28T12:56:14.359Z,4.78
2022-10-28T13:07:03.551Z,4.70
2022-10-28T13:10:25.932Z,4.63
2022-10-28T13:13:14.116Z,4.30
2022-10-28T13:15:59.320Z,4.40
2022-10-28T13:18:38.400Z,4.63
2022-10-28T13:21:31.897Z,4.50
2022-10-28T13:24:18.775Z,4.28
2022-10-28T13:26:46.028Z,4.60
2022-10-28T13:29:25.061Z,4.68
2022-10-28T13:31:52.781Z,4.63
2022-10-28T13:34:26.944Z,4.50
2022-10-28T13:37:03.487Z,4.45
2022-10-28T13:39:33.341Z,4.03
2022-10-28T13:42:21.001Z,4.85
2022-10-28T13:44:50.208Z,4.78
2022-10-28T13:47:17.063Z,3.80
2022-10-28T13:50:05.905Z,4.85
2022-10-28T13:52:34.043Z,4.43
2022-10-28T13:55:20.847Z,4.20
2022-10-28T13:57:50.312Z,4.65
2022-10-28T14:02:49.489Z,4.38
2022-10-28T14:05:25.142Z,3.95
2022-10-28T14:07:55.535Z,4.30
2022-10-28T14:10:24.293Z,4.10
2022-10-28T14:13:00.700Z,3.75
2022-10-28T14:15:37.199Z,4.43
2022-10-28T14:21:05.588Z,4.72
2022-10-28T14:23:36.607Z,4.63
2022-10-28T14:26:05.734Z,4.50
2022-10-28T14:28:32.672Z,5.07
2022-10-28T14:31:11.732Z,4.60
2022-10-28T14:34:09.497Z,4.55
2022-10-28T14:36:49.050Z,4.55
2022-10-28T14:42:29.541Z,6.50
2022-10-28T14:45:23.260Z,5.13
2022-10-28T14:48:17.364Z,4.78
2022-10-28T14:50:47.867Z,5.15
2022-10-28T14:53:20.617Z,5.30
2022-10-28T14:55:51.587Z,4.93
2022-10-28T14:58:28.938Z,4.85
2022-10-28T15:01:06.000Z,4.80
2022-10-28T15:03:33.312Z,4.93
2022-10-28T15:06:25.864Z,4.70
2022-10-28T15:08:53.918Z,4.57
2022-10-28T15:11:20.916Z,4.90
2022-10-28T15:13:54.417Z,4.50
2022-10-28T15:16:23.538Z,4.60
2022-10-28T15:18:52.466Z,4.35
2022-10-28T15:21:21.636Z,4.57
2022-10-28T15:24:01.957Z,4.65
2022-10-28T15:26:28.956Z,5.13
2022-10-28T15:28:56.015Z,4.63
2022-10-28T15:31:22.961Z,4.35
2022-10-28T15:33:49.910Z,4.35
2022-10-28T15:36:19.462Z,4.20
2022-10-28T15:38:49.117Z,4.47
2022-10-28T15:44:06.183Z,4.43
2022-10-28T15:46:34.540Z,4.40
2022-10-28T15:49:02.616Z,4.80
2022-10-28T15:51:29.507Z,5.05
2022-10-28T15:54:26.085Z,4.05
2022-10-28T15:56:55.723Z,4.30
2022-10-28T15:59:24.527Z,3.70
2022-10-28T16:04:23.511Z,4.63
2022-10-28T16:07:07.493Z,4.07
2022-10-28T16:09:36.852Z,3.88
2022-10-28T16:12:12.396Z,3.88
2022-10-28T16:14:44.062Z,3.90
2022-10-28T16:17:23.840Z,4.25
2022-10-28T16:19:54.985Z,3.90
2022-10-28T16:22:23.876Z,3.90
2022-10-28T16:24:51.792Z,22.15
2022-10-28T16:27:30.742Z,20.58
2022-10-28T16:29:57.799Z,15.00
2022-10-28T16:32:46.662Z,8.43
2022-10-28T16:35:21.730Z,6.63
2022-10-28T16:37:53.706Z,6.30
2022-10-28T16:40:49.762Z,6.40
2022-10-28T16:43:18.025Z,55.35
2022-10-28T16:45:44.921Z,44.03
2022-10-28T16:48:13.855Z,34.28
2022-10-28T16:50:42.501Z,22.33
2022-10-28T16:53:12.262Z,17.77
2022-10-28T16:55:39.229Z,15.90
2022-10-28T16:58:06.339Z,14.38
2022-10-28T17:00:33.293Z,14.32
2022-10-28T17:03:00.834Z,13.30
2022-10-28T17:05:28.071Z,13.00
2022-10-28T17:07:56.371Z,12.93
2022-10-28T17:10:23.864Z,12.23
2022-10-28T17:12:51.040Z,12.02
2022-10-28T17:15:18.515Z,11.68
2022-10-28T17:17:48.491Z,10.60
2022-10-28T17:20:15.523Z,10.13
2022-10-28T17:22:42.489Z,10.93
2022-10-28T17:25:09.846Z,10.18
2022-10-28T17:27:36.911Z,9.52
2022-10-28T17:30:04.456Z,10.00
2022-10-28T17:32:31.439Z,9.52
2022-10-28T17:34:58.382Z,9.80
2022-10-28T17:37:25.286Z,22.55
2022-10-28T17:39:52.515Z,35.65
2022-10-28T17:42:19.499Z,30.42
2022-10-28T17:44:46.354Z,21.60
2022-10-28T17:47:13.321Z,20.45
2022-10-28T17:49:40.216Z,18.25
2022-10-28T17:52:07.125Z,16.73
2022-10-28T17:54:33.997Z,13.68
2022-10-28T17:57:01.018Z,13.60
2022-10-28T17:59:27.872Z,12.30
2022-10-28T18:01:54.924Z,11.43
2022-10-28T18:04:26.563Z,11.57
2022-10-28T18:06:54.942Z,11.63
2022-10-28T18:09:22.350Z,10.98
2022-10-28T18:11:50.020Z,11.57
2022-10-28T18:14:17.795Z,10.70
2022-10-28T18:16:46.037Z,11.23
2022-10-28T18:19:13.835Z,10.57
2022-10-28T18:21:40.770Z,10.43
2022-10-28T18:24:08.007Z,10.25
2022-10-28T18:26:37.008Z,16.02
2022-10-28T18:29:05.489Z,31.52
2022-10-28T18:31:35.431Z,31.00
2022-10-28T18:34:02.583Z,26.35
2022-10-28T18:36:36.756Z,21.52
2022-10-28T18:39:05.588Z,19.50
2022-10-28T18:41:34.581Z,17.65
2022-10-28T18:44:04.515Z,15.68
2022-10-28T18:46:35.162Z,14.70
2022-10-28T18:49:02.749Z,14.10
2022-10-28T18:51:33.592Z,13.00
2022-10-28T18:54:00.586Z,12.90
2022-10-28T18:56:31.363Z,13.10
2022-10-28T18:58:58.961Z,12.05
2022-10-28T19:01:29.432Z,11.65
2022-10-28T19:03:58.562Z,23.23
2022-10-28T19:06:27.044Z,22.80
2022-10-28T19:08:55.728Z,20.15
2022-10-28T19:11:25.869Z,18.03
2022-10-28T19:13:52.773Z,15.50
2022-10-28T19:16:19.650Z,14.52
2022-10-28T19:18:46.554Z,12.95
2022-10-28T19:21:15.135Z,12.90
2022-10-28T19:23:42.914Z,12.82
2022-10-28T19:26:10.985Z,12.27
2022-10-28T19:28:39.574Z,12.30
2022-10-28T19:31:08.874Z,11.53
2022-10-28T19:33:38.441Z,11.07
2022-10-28T19:38:36.744Z,10.77
2022-10-28T19:41:14.699Z,10.85
2022-10-28T19:43:42.368Z,10.82
2022-10-28T19:46:11.857Z,11.23
2022-10-28T19:48:40.208Z,9.82
2022-10-28T19:51:08.197Z,10.73
2022-10-28T19:56:03.652Z,10.13
2022-10-28T19:58:31.849Z,9.60
2022-10-28T20:01:07.184Z,10.70
2022-10-28T20:03:35.105Z,9.90
2022-10-28T20:06:13.977Z,9.20
2022-10-28T20:08:46.405Z,9.13
2022-10-28T20:11:16.199Z,9.73
2022-10-28T20:13:45.864Z,9.07
2022-10-28T20:16:14.544Z,9.07
2022-10-28T20:18:41.772Z,8.60
2022-10-28T20:21:13.793Z,18.80
2022-10-28T20:23:44.949Z,66.57
2022-10-28T20:26:13.404Z,51.90
2022-10-28T20:28:40.712Z,38.63
2022-10-28T20:31:09.679Z,30.48
2022-10-28T20:33:38.742Z,26.77
2022-10-28T20:36:06.919Z,21.35
2022-10-28T20:38:34.060Z,20.90
2022-10-28T20:41:01.301Z,20.88
2022-10-28T20:43:29.698Z,18.77
2022-10-28T20:46:01.166Z,18.85
2022-10-28T20:48:29.211Z,18.38
2022-10-28T20:51:00.958Z,16.67
2022-10-28T20:53:33.098Z,16.55
2022-10-28T20:56:01.756Z,16.77
2022-10-28T20:58:34.662Z,15.90
2022-10-28T21:01:03.841Z,15.98
2022-10-28T21:03:30.832Z,15.02
2022-10-28T21:05:57.791Z,14.85
2022-10-28T21:08:24.739Z,15.10
2022-10-28T21:13:18.781Z,14.25
2022-10-28T21:15:45.995Z,14.57
2022-10-28T21:18:13.083Z,14.68
2022-10-28T21:20:40.318Z,52.40
2022-10-28T21:23:07.374Z,68.63
2022-10-28T21:25:34.625Z,54.67
2022-10-28T21:28:01.734Z,50.90
2022-10-28T21:30:28.990Z,38.30
2022-10-28T21:32:56.083Z,35.53
2022-10-28T21:35:23.677Z,30.13
2022-10-28T21:37:50.587Z,28.65
2022-10-28T21:40:17.596Z,28.83
2022-10-28T21:42:49.151Z,25.20
2022-10-28T21:45:17.850Z,24.35
2022-10-28T21:47:44.859Z,24.17
2022-10-28T21:50:12.009Z,21.75
2022-10-28T21:52:38.887Z,22.67
2022-10-28T21:55:14.774Z,21.05
2022-10-28T21:57:53.540Z,21.95
2022-10-28T22:00:20.799Z,21.10
2022-10-28T22:02:47.766Z,20.30
2022-10-28T22:05:14.986Z,19.70
2022-10-28T22:07:41.842Z,19.30
2022-10-28T22:10:09.053Z,18.23
2022-10-28T22:12:36.056Z,18.23
2022-10-28T22:15:03.003Z,19.45
2022-10-28T22:17:29.943Z,18.42
2022-10-28T22:19:56.853Z,18.05
2022-10-28T22:22:24.784Z,18.88
2022-10-28T22:24:52.019Z,18.83
2022-10-28T22:27:20.022Z,18.23
2022-10-28T22:29:46.943Z,86.38
2022-10-28T22:32:13.802Z,96.40
2022-10-28T22:34:40.735Z,72.60
2022-10-28T22:37:07.662Z,56.35
2022-10-28T22:39:34.620Z,43.35
2022-10-28T22:42:02.182Z,39.08
2022-10-28T22:44:29.124Z,34.33
2022-10-28T22:46:56.022Z,32.00
2022-10-28T22:49:23.112Z,33.17
2022-10-28T22:51:50.392Z,30.55
2022-10-28T22:56:47.093Z,29.67
2022-10-28T23:01:40.837Z,27.48
2022-10-28T23:04:11.744Z,26.77
2022-10-28T23:06:38.678Z,25.48
2022-10-28T23:09:05.614Z,26.52
2022-10-28T23:11:32.581Z,26.17
2022-10-28T23:13:59.502Z,26.00
2022-10-28T23:16:26.492Z,25.58
2022-10-28T23:18:53.436Z,66.55
2022-10-28T23:21:25.398Z,72.88
2022-10-28T23:23:57.280Z,57.17
2022-10-28T23:26:25.207Z,48.97
2022-10-28T23:28:53.877Z,42.97
2022-10-28T23:31:21.222Z,37.63
2022-10-28T23:33:48.137Z,36.33
2022-10-28T23:36:15.874Z,34.92
2022-10-28T23:38:43.168Z,33.85
2022-10-28T23:41:13.941Z,31.83
2022-10-28T23:43:41.791Z,32.17
2022-10-28T23:46:09.075Z,30.17
2022-10-28T23:48:36.019Z,30.80
2022-10-28T23:51:03.015Z,29.13
2022-10-28T23:53:30.821Z,29.33
2022-10-28T23:55:58.363Z,30.30
2022-10-28T23:58:25.448Z,29.33
